createdAt,value
2022-08-03T00:01:25.943Z,21.70
2022-08-03T00:03:52.514Z,21.81
2022-08-03T00:06:19.268Z,21.82
2022-08-03T00:08:45.868Z,21.88
2022-08-03T00:11:12.564Z,21.93
2022-08-03T00:13:39.100Z,21.94
2022-08-03T00:16:05.789Z,21.91
2022-08-03T00:18:32.363Z,21.86
2022-08-03T00:20:58.927Z,21.80
2022-08-03T00:23:26.868Z,21.85
2022-08-03T00:25:54.966Z,21.82
2022-08-03T00:28:21.656Z,21.83
2022-08-03T00:30:48.220Z,21.70
2022-08-03T00:33:15.288Z,21.77
2022-08-03T00:35:50.670Z,21.66
2022-08-03T00:38:18.325Z,21.62
2022-08-03T00:40:44.954Z,21.53
2022-08-03T00:43:11.611Z,21.58
2022-08-03T00:45:40.198Z,21.59
2022-08-03T00:48:23.289Z,21.47
2022-08-03T00:50:56.178Z,21.31
2022-08-03T00:53:22.883Z,21.42
2022-08-03T00:55:49.433Z,21.50
2022-08-03T00:58:16.143Z,21.45
2022-08-03T01:00:42.805Z,21.33
2022-08-03T01:03:10.956Z,21.29
2022-08-03T01:05:53.304Z,21.29
2022-08-03T01:08:37.523Z,21.22
2022-08-03T01:11:24.088Z,21.07
2022-08-03T01:14:18.039Z,20.82
2022-08-03T01:16:55.934Z,20.87
2022-08-03T01:19:28.142Z,20.77
2022-08-03T01:22:18.145Z,20.71
2022-08-03T01:24:59.100Z,20.65
2022-08-03T01:27:54.817Z,20.57
2022-08-03T01:30:24.770Z,20.51
2022-08-03T01:33:15.831Z,20.47
2022-08-03T01:35:47.321Z,20.42
2022-08-03T01:38:18.350Z,20.34
2022-08-03T01:40:56.151Z,20.36
2022-08-03T01:43:55.312Z,20.30
2022-08-03T01:46:16.051Z,20.24
2022-08-03T01:48:44.922Z,20.18
2022-08-03T01:51:12.361Z,20.12
2022-08-03T01:53:43.967Z,20.01
2022-08-03T01:56:11.767Z,19.91
2022-08-03T01:58:40.786Z,20.00
2022-08-03T02:01:10.288Z,19.93
2022-08-03T02:04:00.772Z,19.94
2022-08-03T02:07:02.356Z,19.83
2022-08-03T02:09:16.017Z,19.81
2022-08-03T02:11:44.866Z,19.75
2022-08-03T02:14:11.448Z,19.78
2022-08-03T02:16:38.261Z,19.72
2022-08-03T02:19:07.366Z,19.86
2022-08-03T02:21:57.471Z,19.81
2022-08-03T02:24:23.850Z,19.80
2022-08-03T02:26:51.890Z,19.74
2022-08-03T02:29:38.628Z,19.53
2022-08-03T02:32:12.599Z,19.64
2022-08-03T02:34:42.160Z,19.68
2022-08-03T02:37:11.572Z,19.72
2022-08-03T02:39:41.069Z,19.54
2022-08-03T02:42:09.421Z,19.63
2022-08-03T02:44:41.566Z,19.55
2022-08-03T02:47:10.926Z,19.51
2022-08-03T02:49:50.915Z,19.42
2022-08-03T02:52:21.721Z,19.30
2022-08-03T02:54:51.254Z,19.36
2022-08-03T02:57:19.924Z,19.38
2022-08-03T02:59:47.695Z,19.46
2022-08-03T03:02:16.577Z,19.41
2022-08-03T03:05:50.702Z,19.48
2022-08-03T03:07:45.405Z,19.38
2022-08-03T03:10:20.548Z,19.48
2022-08-03T03:12:48.387Z,19.48
2022-08-03T03:15:14.953Z,19.40
2022-08-03T03:17:43.310Z,19.32
2022-08-03T03:20:10.674Z,19.32
2022-08-03T03:22:38.601Z,19.30
2022-08-03T03:25:07.354Z,19.19
2022-08-03T03:27:34.471Z,19.12
2022-08-03T03:30:02.501Z,19.05
2022-08-03T03:32:32.434Z,19.03
2022-08-03T03:35:00.164Z,18.90
2022-08-03T03:37:27.119Z,18.94
2022-08-03T03:39:55.100Z,18.95
2022-08-03T03:42:22.085Z,18.90
2022-08-03T03:44:49.012Z,18.89
2022-08-03T03:47:15.619Z,18.93
2022-08-03T03:49:43.796Z,18.77
2022-08-03T03:52:10.756Z,18.85
2022-08-03T03:54:45.196Z,18.81
2022-08-03T03:57:13.014Z,18.78
2022-08-03T03:59:42.074Z,18.76
2022-08-03T04:02:09.879Z,18.75
2022-08-03T04:04:56.553Z,18.66
2022-08-03T04:07:44.752Z,18.60
2022-08-03T04:10:37.310Z,18.73
2022-08-03T04:13:09.967Z,18.73
2022-08-03T04:15:39.628Z,18.73
2022-08-03T04:18:09.576Z,18.73
2022-08-03T04:20:38.734Z,18.62
2022-08-03T04:23:13.501Z,18.74
2022-08-03T04:25:43.538Z,18.75
2022-08-03T04:28:30.995Z,18.63
2022-08-03T04:30:59.549Z,18.77
2022-08-03T04:33:30.364Z,18.76
2022-08-03T04:36:02.727Z,18.76
2022-08-03T04:38:39.805Z,18.74
2022-08-03T04:41:08.821Z,18.66
2022-08-03T04:43:39.656Z,18.81
2022-08-03T04:46:08.245Z,18.81
2022-08-03T04:48:35.288Z,18.82
2022-08-03T04:51:04.335Z,18.83
2022-08-03T04:53:31.438Z,18.88
2022-08-03T04:56:04.527Z,18.88
2022-08-03T04:58:31.245Z,18.87
2022-08-03T05:00:57.857Z,19.08
2022-08-03T05:03:25.130Z,19.16
2022-08-03T05:06:09.848Z,19.21
2022-08-03T05:08:46.077Z,19.26
2022-08-03T05:11:15.531Z,19.32
2022-08-03T05:13:42.393Z,19.32
2022-08-03T05:16:09.149Z,19.39
2022-08-03T05:18:36.075Z,19.61
2022-08-03T05:21:02.728Z,19.65
2022-08-03T05:23:29.500Z,19.60
2022-08-03T05:25:56.191Z,19.80
2022-08-03T05:28:23.134Z,19.87
2022-08-03T05:30:49.705Z,19.94
2022-08-03T05:33:16.435Z,20.01
2022-08-03T05:36:01.669Z,20.09
2022-08-03T05:38:35.103Z,20.12
2022-08-03T05:41:21.732Z,20.20
2022-08-03T05:43:54.419Z,20.35
2022-08-03T05:46:22.389Z,20.43
2022-08-03T05:48:49.092Z,20.47
2022-08-03T05:51:15.882Z,20.53
2022-08-03T05:53:43.426Z,20.57
2022-08-03T05:56:14.553Z,20.60
2022-08-03T05:58:48.068Z,20.72
2022-08-03T06:01:16.194Z,20.82
2022-08-03T06:03:42.960Z,20.90
2022-08-03T06:06:09.636Z,20.88
2022-08-03T06:08:36.216Z,21.02
2022-08-03T06:11:03.773Z,21.15
2022-08-03T06:13:30.418Z,21.25
2022-08-03T06:15:57.071Z,21.35
2022-08-03T06:18:24.689Z,21.45
2022-08-03T06:20:52.286Z,21.65
2022-08-03T06:23:19.339Z,21.75
2022-08-03T06:25:47.310Z,22.11
2022-08-03T06:28:42.527Z,22.36
2022-08-03T06:31:01.929Z,22.79
2022-08-03T06:33:48.428Z,23.07
2022-08-03T06:36:15.830Z,23.61
2022-08-03T06:38:42.427Z,23.98
2022-08-03T06:41:09.043Z,24.42
2022-08-03T06:43:37.936Z,24.86
2022-08-03T06:46:24.090Z,25.00
2022-08-03T06:48:50.744Z,25.30
2022-08-03T06:51:17.333Z,25.63
2022-08-03T06:53:43.939Z,25.67
2022-08-03T06:56:11.198Z,25.26
2022-08-03T06:58:37.924Z,25.04
2022-08-03T07:01:04.560Z,24.98
2022-08-03T07:03:31.387Z,25.06
2022-08-03T07:05:59.688Z,25.06
2022-08-03T07:08:33.758Z,25.22
2022-08-03T07:11:01.001Z,25.31
2022-08-03T07:13:27.652Z,25.63
2022-08-03T07:15:56.405Z,25.91
2022-08-03T07:18:29.630Z,26.30
2022-08-03T07:20:57.647Z,26.58
2022-08-03T07:23:25.448Z,26.86
2022-08-03T07:25:52.069Z,27.30
2022-08-03T07:28:20.070Z,27.66
2022-08-03T07:30:47.043Z,27.94
2022-08-03T07:33:13.950Z,28.31
2022-08-03T07:35:40.572Z,28.33
2022-08-03T07:38:07.250Z,28.47
2022-08-03T07:40:33.829Z,28.48
2022-08-03T07:43:00.741Z,28.58
2022-08-03T07:45:27.310Z,28.49
2022-08-03T07:47:54.580Z,28.24
2022-08-03T07:50:22.300Z,28.60
2022-08-03T07:52:50.763Z,29.02
2022-08-03T07:55:19.171Z,29.29
2022-08-03T07:57:45.832Z,29.42
2022-08-03T08:00:19.484Z,29.37
2022-08-03T08:02:46.362Z,29.57
2022-08-03T08:05:13.373Z,29.46
2022-08-03T08:07:40.670Z,29.66
2022-08-03T08:10:09.981Z,29.00
2022-08-03T08:12:38.735Z,29.07
2022-08-03T08:15:06.076Z,29.64
2022-08-03T08:17:42.022Z,30.15
2022-08-03T08:20:09.656Z,30.68
2022-08-03T08:22:36.284Z,31.01
2022-08-03T08:25:06.132Z,31.16
2022-08-03T08:28:31.598Z,31.58
2022-08-03T08:30:21.885Z,32.07
2022-08-03T08:32:49.601Z,32.06
2022-08-03T08:35:17.095Z,31.91
2022-08-03T08:37:44.209Z,31.33
2022-08-03T08:40:21.840Z,31.12
2022-08-03T08:42:57.865Z,31.08
2022-08-03T08:45:25.232Z,31.18
2022-08-03T08:47:54.709Z,31.33
2022-08-03T08:50:27.629Z,31.56
2022-08-03T08:52:56.421Z,31.58
2022-08-03T08:55:23.883Z,31.40
2022-08-03T08:58:02.030Z,30.43
2022-08-03T09:00:28.748Z,29.90
2022-08-03T09:02:55.376Z,29.61
2022-08-03T09:05:35.728Z,30.23
2022-08-03T09:08:08.869Z,31.19
2022-08-03T09:10:35.661Z,31.96
2022-08-03T09:13:02.271Z,31.77
2022-08-03T09:15:33.341Z,31.05
2022-08-03T09:18:02.614Z,30.57
2022-08-03T09:20:32.218Z,30.43
2022-08-03T09:23:18.990Z,30.20
2022-08-03T09:25:59.849Z,30.22
2022-08-03T09:29:00.036Z,30.29
2022-08-03T09:31:20.848Z,30.13
2022-08-03T09:33:48.814Z,30.22
2022-08-03T09:36:47.833Z,30.27
2022-08-03T09:39:19.901Z,30.29
2022-08-03T09:42:15.530Z,30.37
2022-08-03T09:44:44.573Z,30.33
2022-08-03T09:47:13.009Z,30.46
2022-08-03T09:49:42.838Z,30.58
2022-08-03T09:52:37.773Z,30.58
2022-08-03T09:55:02.808Z,30.53
2022-08-03T09:57:32.614Z,30.35
2022-08-03T10:00:12.053Z,30.44
2022-08-03T10:02:39.962Z,30.51
2022-08-03T10:05:08.505Z,30.66
2022-08-03T10:07:50.827Z,30.82
2022-08-03T10:10:31.020Z,30.51
2022-08-03T10:13:00.064Z,30.32
2022-08-03T10:16:24.077Z,30.42
2022-08-03T10:18:14.167Z,30.45
2022-08-03T10:20:46.933Z,30.50
2022-08-03T10:23:14.949Z,30.58
2022-08-03T10:25:43.836Z,30.72
2022-08-03T10:28:15.040Z,30.76
2022-08-03T10:30:45.792Z,30.72
2022-08-03T10:33:51.082Z,30.79
2022-08-03T10:36:07.334Z,30.81
2022-08-03T10:38:40.526Z,30.71
2022-08-03T10:41:09.013Z,30.77
2022-08-03T10:43:52.884Z,30.88
2022-08-03T10:46:21.089Z,30.87
2022-08-03T10:48:50.026Z,30.93
2022-08-03T10:51:17.327Z,30.92
2022-08-03T10:53:54.132Z,31.05
2022-08-03T10:56:52.558Z,31.10
2022-08-03T10:59:40.840Z,31.17
2022-08-03T11:02:09.942Z,31.28
2022-08-03T11:04:36.497Z,31.43
2022-08-03T11:07:22.106Z,31.80
2022-08-03T11:09:53.994Z,32.02
2022-08-03T11:12:30.904Z,32.17
2022-08-03T11:15:05.297Z,32.23
2022-08-03T11:17:33.923Z,32.29
2022-08-03T11:20:13.760Z,32.31
2022-08-03T11:22:54.561Z,32.21
2022-08-03T11:25:54.428Z,32.28
2022-08-03T11:28:29.025Z,32.51
2022-08-03T11:30:57.256Z,32.61
2022-08-03T11:33:30.875Z,32.57
2022-08-03T11:36:02.100Z,32.53
2022-08-03T11:38:28.686Z,32.62
2022-08-03T11:40:55.329Z,32.62
2022-08-03T11:43:21.842Z,32.69
2022-08-03T11:46:12.581Z,32.66
2022-08-03T11:48:44.115Z,32.71
2022-08-03T11:51:22.895Z,32.72
2022-08-03T11:53:54.400Z,32.67
2022-08-03T11:56:21.029Z,32.70
2022-08-03T11:58:58.057Z,32.70
2022-08-03T12:01:36.389Z,32.77
2022-08-03T12:04:04.818Z,32.73
2022-08-03T12:06:31.379Z,32.66
2022-08-03T12:08:57.915Z,32.74
2022-08-03T12:11:24.471Z,33.07
2022-08-03T12:14:35.719Z,33.25
2022-08-03T12:16:37.973Z,33.43
2022-08-03T12:19:06.657Z,33.59
2022-08-03T12:21:33.517Z,33.75
2022-08-03T12:24:02.660Z,33.77
2022-08-03T12:26:31.075Z,33.75
2022-08-03T12:28:58.331Z,33.76
2022-08-03T12:31:25.218Z,33.68
2022-08-03T12:34:03.612Z,33.66
2022-08-03T12:36:32.146Z,33.73
2022-08-03T12:39:04.726Z,33.55
2022-08-03T12:41:34.116Z,33.43
2022-08-03T12:44:03.460Z,33.42
2022-08-03T12:46:57.409Z,33.43
2022-08-03T12:49:24.199Z,33.51
2022-08-03T12:51:50.813Z,33.64
2022-08-03T12:54:24.422Z,33.69
2022-08-03T12:57:08.028Z,33.82
2022-08-03T12:59:45.045Z,33.93
2022-08-03T13:02:19.277Z,33.97
2022-08-03T13:04:51.546Z,34.07
2022-08-03T13:07:19.399Z,34.18
2022-08-03T13:09:49.369Z,34.23
2022-08-03T13:12:17.421Z,34.28
2022-08-03T13:14:46.933Z,34.32
2022-08-03T13:17:14.007Z,34.30
2022-08-03T13:19:40.848Z,34.28
2022-08-03T13:22:16.899Z,34.14
2022-08-03T13:24:44.765Z,34.06
2022-08-03T13:27:59.450Z,34.08
2022-08-03T13:29:59.136Z,33.89
2022-08-03T13:32:25.789Z,33.79
2022-08-03T13:34:52.421Z,33.89
2022-08-03T13:37:19.082Z,34.02
2022-08-03T13:39:58.433Z,34.04
2022-08-03T13:42:29.448Z,34.25
2022-08-03T13:44:56.057Z,34.30
2022-08-03T13:47:22.931Z,34.06
2022-08-03T13:49:59.596Z,34.09
2022-08-03T13:52:32.411Z,33.99
2022-08-03T13:54:59.973Z,34.03
2022-08-03T13:58:05.941Z,34.08
2022-08-03T14:00:17.211Z,33.98
2022-08-03T14:02:59.923Z,33.97
2022-08-03T14:05:32.297Z,34.06
2022-08-03T14:08:03.969Z,33.98
2022-08-03T14:10:31.894Z,33.66
2022-08-03T14:13:00.583Z,33.74
2022-08-03T14:15:28.702Z,33.82
2022-08-03T14:17:56.272Z,33.85
2022-08-03T14:20:26.014Z,33.99
2022-08-03T14:23:06.823Z,34.08
2022-08-03T14:25:43.277Z,34.16
2022-08-03T14:28:18.698Z,34.39
2022-08-03T14:30:45.674Z,34.16
2022-08-03T14:33:12.274Z,34.02
2022-08-03T14:35:39.030Z,34.04
2022-08-03T14:38:05.704Z,33.97
2022-08-03T14:40:32.596Z,33.93
2022-08-03T14:42:59.170Z,33.82
2022-08-03T14:45:25.709Z,33.81
2022-08-03T14:50:28.498Z,33.91
2022-08-03T14:50:43.193Z,33.98
2022-08-03T14:53:12.184Z,34.03
2022-08-03T14:55:50.774Z,34.02
2022-08-03T14:58:20.916Z,34.25
2022-08-03T15:00:48.960Z,34.39
2022-08-03T15:03:17.239Z,34.51
2022-08-03T15:05:44.766Z,34.36
2022-08-03T15:08:11.570Z,34.38
2022-08-03T15:10:40.520Z,34.18
2022-08-03T15:13:12.575Z,34.13
2022-08-03T15:15:39.255Z,34.00
2022-08-03T15:18:06.057Z,34.12
2022-08-03T15:20:43.778Z,34.11
2022-08-03T15:23:11.601Z,34.20
2022-08-03T15:26:28.840Z,34.20
2022-08-03T15:28:24.932Z,34.07
2022-08-03T15:30:54.448Z,34.13
2022-08-03T15:33:21.024Z,34.06
2022-08-03T15:35:47.999Z,33.89
2022-08-03T15:38:14.759Z,33.91
2022-08-03T15:40:41.685Z,33.72
2022-08-03T15:43:08.693Z,33.81
2022-08-03T15:45:36.591Z,33.72
2022-08-03T15:48:05.694Z,33.78
2022-08-03T15:50:32.407Z,33.76
2022-08-03T15:52:58.965Z,33.61
2022-08-03T15:55:25.907Z,33.60
2022-08-03T15:59:04.506Z,33.58
2022-08-03T16:00:40.426Z,33.63
2022-08-03T16:03:07.039Z,33.74
2022-08-03T16:05:33.867Z,33.83
2022-08-03T16:08:03.594Z,33.82
2022-08-03T16:10:31.358Z,33.77
2022-08-03T16:13:00.827Z,33.77
2022-08-03T16:15:27.801Z,33.62
2022-08-03T16:17:54.819Z,33.69
2022-08-03T16:20:31.699Z,33.63
2022-08-03T16:23:05.496Z,33.59
2022-08-03T16:25:42.030Z,33.64
2022-08-03T16:28:13.881Z,33.71
2022-08-03T16:30:43.291Z,33.82
2022-08-03T16:33:11.008Z,33.71
2022-08-03T16:35:37.859Z,33.82
2022-08-03T16:38:09.726Z,33.71
2022-08-03T16:40:38.413Z,33.79
2022-08-03T16:43:18.230Z,33.88
2022-08-03T16:45:47.149Z,33.74
2022-08-03T16:48:15.136Z,33.82
2022-08-03T16:50:41.926Z,33.82
2022-08-03T16:53:09.831Z,33.75
2022-08-03T16:55:48.522Z,33.74
2022-08-03T16:58:19.530Z,33.80
2022-08-03T17:01:01.720Z,33.69
2022-08-03T17:04:02.411Z,33.57
2022-08-03T17:06:35.282Z,33.57
2022-08-03T17:09:18.113Z,33.55
2022-08-03T17:11:47.880Z,33.43
2022-08-03T17:14:16.206Z,33.58
2022-08-03T17:16:52.206Z,33.52
2022-08-03T17:19:23.203Z,33.49
2022-08-03T17:21:58.113Z,33.38
2022-08-03T17:24:52.139Z,33.34
2022-08-03T17:28:51.371Z,33.29
2022-08-03T17:30:18.909Z,33.08
2022-08-03T17:32:56.526Z,33.10
2022-08-03T17:35:34.296Z,33.10
2022-08-03T17:38:06.672Z,32.92
2022-08-03T17:40:35.825Z,32.98
2022-08-03T17:44:14.246Z,32.92
2022-08-03T17:45:52.892Z,32.87
2022-08-03T17:48:25.261Z,32.78
2022-08-03T17:50:59.515Z,32.74
2022-08-03T17:53:36.598Z,32.53
2022-08-03T17:56:44.373Z,32.47
2022-08-03T17:59:51.843Z,32.47
2022-08-03T18:02:34.808Z,32.41
2022-08-03T18:05:16.432Z,32.39
2022-08-03T18:07:59.285Z,32.17
2022-08-03T18:10:35.190Z,32.15
2022-08-03T18:13:10.482Z,32.19
2022-08-03T18:15:51.962Z,32.15
2022-08-03T18:18:29.286Z,32.11
2022-08-03T18:21:04.534Z,32.07
2022-08-03T18:23:37.222Z,31.98
2022-08-03T18:26:07.406Z,31.93
2022-08-03T18:28:38.549Z,31.92
2022-08-03T18:31:07.586Z,31.89
2022-08-03T18:34:17.950Z,31.73
2022-08-03T18:36:29.991Z,31.71
2022-08-03T18:38:59.744Z,31.60
2022-08-03T18:41:33.191Z,31.51
2022-08-03T18:44:08.747Z,31.42
2022-08-03T18:47:15.756Z,31.27
2022-08-03T18:50:24.648Z,31.11
2022-08-03T18:53:22.705Z,30.92
2022-08-03T18:56:34.998Z,30.80
2022-08-03T19:02:21.021Z,30.53
2022-08-03T19:04:53.221Z,30.50
2022-08-03T19:07:26.729Z,30.42
2022-08-03T19:09:59.384Z,30.34
2022-08-03T19:12:39.782Z,30.10
2022-08-03T19:15:12.791Z,30.08
2022-08-03T19:17:53.002Z,30.00
2022-08-03T19:20:30.981Z,29.82
2022-08-03T19:22:59.808Z,29.81
2022-08-03T19:25:34.700Z,29.73
2022-08-03T19:28:04.139Z,29.62
2022-08-03T19:30:39.063Z,29.52
2022-08-03T19:33:09.463Z,29.34
2022-08-03T19:35:52.238Z,29.27
2022-08-03T19:38:29.048Z,29.23
2022-08-03T19:41:03.022Z,29.07
2022-08-03T19:43:53.140Z,29.06
2022-08-03T19:46:21.811Z,29.01
2022-08-03T19:48:59.811Z,28.95
2022-08-03T19:52:00.653Z,28.84
2022-08-03T19:54:29.975Z,28.73
2022-08-03T19:57:00.393Z,28.68
2022-08-03T19:59:29.903Z,28.64
2022-08-03T20:01:57.516Z,28.45
2022-08-03T20:04:24.406Z,28.50
2022-08-03T20:06:52.207Z,28.43
2022-08-03T20:09:20.546Z,28.30
2022-08-03T20:11:47.815Z,28.27
2022-08-03T20:14:20.776Z,28.24
2022-08-03T20:16:53.521Z,28.20
2022-08-03T20:19:20.534Z,28.19
2022-08-03T20:21:50.003Z,28.16
2022-08-03T20:24:25.031Z,28.09
2022-08-03T20:26:57.726Z,28.05
2022-08-03T20:29:42.680Z,27.92
2022-08-03T20:32:27.804Z,27.75
2022-08-03T20:34:54.454Z,27.83
2022-08-03T20:37:22.098Z,27.76
2022-08-03T20:39:49.582Z,27.69
2022-08-03T20:42:21.077Z,27.58
2022-08-03T20:45:04.291Z,27.55
2022-08-03T20:47:33.383Z,27.52
2022-08-03T20:50:03.851Z,27.48
2022-08-03T20:52:33.163Z,27.45
2022-08-03T20:54:59.885Z,27.40
2022-08-03T20:57:33.219Z,27.35
2022-08-03T21:00:00.752Z,27.29
2022-08-03T21:02:29.753Z,27.20
2022-08-03T21:04:58.101Z,27.18
2022-08-03T21:08:04.402Z,27.14
2022-08-03T21:10:16.676Z,27.08
2022-08-03T21:12:46.273Z,27.02
2022-08-03T21:13:09.393Z,30.67
2022-08-03T21:16:02.539Z,26.92
2022-08-03T21:18:11.120Z,26.77
2022-08-03T21:20:41.011Z,26.80
2022-08-03T21:23:10.430Z,26.71
2022-08-03T21:25:58.694Z,26.68
2022-08-03T21:28:27.675Z,26.60
2022-08-03T21:30:54.625Z,26.58
2022-08-03T21:33:27.908Z,26.53
2022-08-03T21:35:54.918Z,26.49
2022-08-03T21:38:29.768Z,26.31
2022-08-03T21:40:57.167Z,26.40
2022-08-03T21:43:23.998Z,26.33
2022-08-03T21:45:54.721Z,26.33
2022-08-03T21:48:24.931Z,26.23
2022-08-03T21:50:52.534Z,26.23
2022-08-03T21:53:20.066Z,26.20
2022-08-03T21:56:08.377Z,26.15
2022-08-03T21:59:04.144Z,26.11
2022-08-03T22:01:35.471Z,26.06
2022-08-03T22:04:09.329Z,26.03
2022-08-03T22:06:42.387Z,25.98
2022-08-03T22:09:09.454Z,25.97
2022-08-03T22:11:38.080Z,25.94
2022-08-03T22:14:05.331Z,25.84
2022-08-03T22:16:32.066Z,25.89
2022-08-03T22:18:58.717Z,25.88
2022-08-03T22:21:36.280Z,25.84
2022-08-03T22:24:05.444Z,25.83
2022-08-03T22:26:35.203Z,25.70
2022-08-03T22:29:07.416Z,25.73
2022-08-03T22:31:58.460Z,25.73
2022-08-03T22:34:26.779Z,25.55
2022-08-03T22:37:00.420Z,25.64
2022-08-03T22:39:28.830Z,25.57
2022-08-03T22:41:59.061Z,25.52
2022-08-03T22:44:29.387Z,25.45
2022-08-03T22:46:56.021Z,25.39
2022-08-03T22:49:22.978Z,25.22
2022-08-03T22:51:51.944Z,25.29
2022-08-03T22:54:19.240Z,25.18
2022-08-03T22:56:50.083Z,25.21
2022-08-03T22:59:40.633Z,25.21
2022-08-03T23:02:15.050Z,25.17
2022-08-03T23:05:02.734Z,25.14
2022-08-03T23:07:34.873Z,25.11
2022-08-03T23:10:05.058Z,25.07
2022-08-03T23:12:34.158Z,25.11
2022-08-03T23:15:05.058Z,25.05
2022-08-03T23:17:32.750Z,24.99
2022-08-03T23:20:05.175Z,24.96
2022-08-03T23:22:34.091Z,24.89
2022-08-03T23:25:03.996Z,24.88
2022-08-03T23:27:32.555Z,24.88
2022-08-03T23:30:00.872Z,24.76
2022-08-03T23:32:30.898Z,24.90
2022-08-03T23:35:19.964Z,24.87
2022-08-03T23:38:10.762Z,24.81
2022-08-03T23:40:36.878Z,24.71
2022-08-03T23:43:05.048Z,24.60
2022-08-03T23:45:36.190Z,24.64
2022-08-03T23:48:02.750Z,24.65
2022-08-03T23:50:40.110Z,24.57
2022-08-03T23:53:26.339Z,24.36
2022-08-03T23:56:31.242Z,24.35
2022-08-03T23:59:12.097Z,24.37
